createdAt,value
2023-04-25T00:01:10.009Z,5.40
2023-04-25T00:03:40.073Z,5.40
2023-04-25T00:06:09.420Z,5.40
2023-04-25T00:08:38.188Z,5.30
2023-04-25T00:11:07.008Z,5.30
2023-04-25T00:13:35.530Z,5.30
2023-04-25T00:16:05.246Z,5.20
2023-04-25T00:18:34.815Z,5.30
2023-04-25T00:21:07.182Z,5.30
2023-04-25T00:23:37.245Z,5.40
2023-04-25T00:26:05.810Z,5.50
2023-04-25T00:28:34.360Z,5.60
2023-04-25T00:31:03.057Z,5.60
2023-04-25T00:33:31.695Z,5.70
2023-04-25T00:36:00.265Z,5.70
2023-04-25T00:38:30.520Z,5.80
2023-04-25T00:40:59.148Z,5.80
2023-04-25T00:43:29.105Z,5.90
2023-04-25T00:45:58.928Z,5.90
2023-04-25T00:48:27.499Z,6.00
2023-04-25T00:50:58.799Z,6.00
2023-04-25T00:53:28.981Z,6.10
2023-04-25T00:55:59.069Z,6.10
2023-04-25T00:58:28.012Z,6.10
2023-04-25T01:00:58.576Z,6.10
2023-04-25T01:03:29.784Z,6.10
2023-04-25T01:05:58.707Z,6.10
2023-04-25T01:08:27.311Z,6.10
2023-04-25T01:10:55.975Z,6.10
2023-04-25T01:13:25.938Z,6.10
2023-04-25T01:15:54.854Z,6.00
2023-04-25T01:18:23.615Z,6.10
2023-04-25T01:20:53.467Z,5.90
2023-04-25T01:23:25.358Z,5.90
2023-04-25T01:25:54.948Z,5.80
2023-04-25T01:28:24.390Z,5.80
2023-04-25T01:30:53.920Z,5.70
2023-04-25T01:33:23.885Z,5.60
2023-04-25T01:35:52.539Z,5.60
2023-04-25T01:38:23.930Z,5.50
2023-04-25T01:40:54.046Z,5.50
2023-04-25T01:43:24.215Z,5.50
2023-04-25T01:45:53.025Z,5.30
2023-04-25T01:48:21.729Z,5.30
2023-04-25T01:50:50.406Z,5.20
2023-04-25T01:53:19.972Z,5.10
2023-04-25T01:55:50.560Z,5.10
2023-04-25T01:58:22.047Z,5.00
2023-04-25T02:01:13.909Z,5.00
2023-04-25T02:03:48.758Z,4.90
2023-04-25T02:06:27.179Z,4.80
2023-04-25T02:08:58.816Z,4.80
2023-04-25T02:11:28.700Z,4.70
2023-04-25T02:14:23.132Z,4.70
2023-04-25T02:16:59.449Z,4.60
2023-04-25T02:19:28.209Z,4.60
2023-04-25T02:21:58.011Z,4.60
2023-04-25T02:24:28.987Z,4.50
2023-04-25T02:27:00.045Z,4.50
2023-04-25T02:29:28.631Z,4.50
2023-04-25T02:31:57.383Z,4.50
2023-04-25T02:34:25.997Z,4.40
2023-04-25T02:36:54.534Z,4.40
2023-04-25T02:39:23.208Z,4.40
2023-04-25T02:41:51.924Z,4.30
2023-04-25T02:44:21.842Z,4.30
2023-04-25T02:46:50.383Z,4.30
2023-04-25T02:49:19.030Z,4.30
2023-04-25T02:51:47.680Z,4.30
2023-04-25T02:54:16.344Z,4.30
2023-04-25T02:56:48.911Z,4.30
2023-04-25T02:59:24.311Z,4.30
2023-04-25T03:01:52.817Z,4.30
2023-04-25T03:04:21.873Z,4.30
2023-04-25T03:06:50.706Z,4.30
2023-04-25T03:09:19.460Z,4.40
2023-04-25T03:11:49.013Z,4.40
2023-04-25T03:14:17.562Z,4.40
2023-04-25T03:16:47.950Z,4.50
2023-04-25T03:19:17.022Z,4.50
2023-04-25T03:21:46.128Z,4.50
2023-04-25T03:24:15.170Z,4.50
2023-04-25T03:26:43.702Z,4.50
2023-04-25T03:29:12.550Z,4.50
2023-04-25T03:31:42.849Z,4.50
2023-04-25T03:34:13.084Z,4.40
2023-04-25T03:36:41.846Z,4.40
2023-04-25T03:39:11.089Z,4.40
2023-04-25T03:41:40.764Z,4.40
2023-04-25T03:44:14.856Z,4.50
2023-04-25T03:46:43.685Z,4.70
2023-04-25T03:49:13.730Z,4.60
2023-04-25T03:52:03.940Z,4.50
2023-04-25T03:54:38.249Z,4.70
2023-04-25T03:57:11.322Z,4.80
2023-04-25T03:59:41.713Z,4.80
2023-04-25T04:02:13.370Z,4.90
2023-04-25T04:04:45.355Z,5.00
2023-04-25T04:07:14.258Z,5.00
2023-04-25T04:09:44.953Z,5.20
2023-04-25T04:12:20.038Z,5.10
2023-04-25T04:14:48.519Z,5.10
2023-04-25T04:17:17.102Z,5.10
2023-04-25T04:19:47.170Z,5.20
2023-04-25T04:22:21.195Z,5.20
2023-04-25T04:24:51.643Z,5.20
2023-04-25T04:27:35.380Z,5.20
2023-04-25T04:30:22.593Z,5.20
2023-04-25T04:33:03.103Z,5.20
2023-04-25T04:35:33.347Z,5.20
2023-04-25T04:38:02.566Z,5.20
2023-04-25T04:40:35.840Z,5.20
2023-04-25T04:43:14.321Z,5.20
2023-04-25T04:46:13.693Z,5.20
2023-04-25T04:48:58.331Z,5.20
2023-04-25T04:51:50.841Z,5.30
2023-04-25T04:54:38.439Z,5.40
2023-04-25T04:57:17.478Z,5.30
2023-04-25T05:00:08.366Z,5.40
2023-04-25T05:03:08.810Z,5.40
2023-04-25T05:05:44.626Z,5.50
2023-04-25T05:08:35.209Z,5.50
2023-04-25T05:11:27.046Z,5.60
2023-04-25T05:14:24.910Z,5.60
2023-04-25T05:17:15.796Z,5.70
2023-04-25T05:20:15.076Z,5.70
2023-04-25T05:22:55.439Z,5.80
2023-04-25T05:25:39.268Z,5.80
2023-04-25T05:28:14.193Z,5.80
2023-04-25T05:31:12.284Z,5.80
2023-04-25T05:33:49.160Z,5.80
2023-04-25T05:36:18.535Z,5.80
2023-04-25T05:38:47.267Z,5.90
2023-04-25T05:41:37.207Z,6.00
2023-04-25T05:44:27.865Z,6.10
2023-04-25T05:47:20.683Z,6.20
2023-04-25T05:50:10.781Z,6.20
2023-04-25T05:52:50.023Z,6.30
2023-04-25T05:55:47.537Z,6.40
2023-04-25T05:58:25.953Z,6.50
2023-04-25T06:00:56.347Z,6.80
2023-04-25T06:03:25.637Z,6.60
2023-04-25T06:05:54.644Z,6.80
2023-04-25T06:08:23.225Z,7.00
2023-04-25T06:10:51.793Z,7.10
2023-04-25T06:13:21.075Z,7.30
2023-04-25T06:15:51.270Z,7.30
2023-04-25T06:18:20.329Z,7.30
2023-04-25T06:20:49.032Z,7.40
2023-04-25T06:23:19.706Z,7.50
2023-04-25T06:25:54.113Z,7.50
2023-04-25T06:28:24.275Z,7.70
2023-04-25T06:30:54.372Z,7.80
2023-04-25T06:33:23.269Z,7.90
2023-04-25T06:35:52.147Z,8.00
2023-04-25T06:38:25.418Z,8.10
2023-04-25T06:40:55.332Z,8.20
2023-04-25T06:43:23.977Z,8.10
2023-04-25T06:46:06.668Z,8.30
2023-04-25T06:48:42.679Z,8.70
2023-04-25T06:51:11.387Z,9.50
2023-04-25T06:53:41.612Z,10.70
2023-04-25T06:56:14.349Z,11.80
2023-04-25T06:58:57.463Z,12.60
2023-04-25T07:01:34.365Z,12.70
2023-04-25T07:04:07.222Z,12.10
2023-04-25T07:06:43.318Z,11.60
2023-04-25T07:09:12.311Z,11.00
2023-04-25T07:11:41.499Z,10.60
2023-04-25T07:14:10.114Z,10.30
2023-04-25T07:16:40.121Z,10.20
2023-04-25T07:19:08.788Z,10.20
2023-04-25T07:21:38.592Z,10.10
2023-04-25T07:24:08.855Z,10.00
2023-04-25T07:26:42.000Z,9.90
2023-04-25T07:29:21.326Z,10.10
2023-04-25T07:31:51.284Z,10.90
2023-04-25T07:34:22.359Z,12.10
2023-04-25T07:36:51.501Z,13.20
2023-04-25T07:39:20.501Z,14.20
2023-04-25T07:41:49.407Z,14.80
2023-04-25T07:44:24.394Z,14.90
2023-04-25T07:46:54.598Z,14.70
2023-04-25T07:49:23.332Z,14.30
2023-04-25T07:51:52.267Z,13.90
2023-04-25T07:54:22.434Z,13.50
2023-04-25T07:57:03.260Z,13.10
2023-04-25T07:59:33.288Z,12.70
2023-04-25T08:02:05.659Z,12.30
2023-04-25T08:04:34.374Z,12.00
2023-04-25T08:07:06.716Z,11.70
2023-04-25T08:09:43.447Z,11.40
2023-04-25T08:12:19.439Z,11.20
2023-04-25T08:14:48.975Z,11.10
2023-04-25T08:17:19.124Z,11.10
2023-04-25T08:19:47.800Z,11.10
2023-04-25T08:22:25.672Z,11.20
2023-04-25T08:25:13.526Z,11.30
2023-04-25T08:27:42.992Z,11.50
2023-04-25T08:30:12.408Z,11.60
2023-04-25T08:32:44.109Z,11.70
2023-04-25T08:35:42.413Z,12.00
2023-04-25T08:38:12.211Z,12.20
2023-04-25T08:40:41.855Z,11.90
2023-04-25T08:43:20.582Z,11.50
2023-04-25T08:45:49.805Z,11.10
2023-04-25T08:48:35.797Z,10.80
2023-04-25T08:53:43.830Z,10.70
2023-04-25T08:56:15.327Z,11.00
2023-04-25T08:58:44.104Z,11.80
2023-04-25T09:01:13.678Z,12.60
2023-04-25T09:03:51.692Z,12.90
2023-04-25T09:06:21.730Z,13.00
2023-04-25T09:08:52.717Z,13.00
2023-04-25T09:11:23.486Z,13.10
2023-04-25T09:14:12.860Z,13.00
2023-04-25T09:17:06.071Z,12.70
2023-04-25T09:19:46.602Z,12.70
2023-04-25T09:22:24.168Z,13.00
2023-04-25T09:24:52.789Z,13.50
2023-04-25T09:27:26.172Z,14.50
2023-04-25T09:30:02.840Z,15.00
2023-04-25T09:32:46.815Z,15.10
2023-04-25T09:35:26.317Z,14.80
2023-04-25T09:37:56.330Z,14.20
2023-04-25T09:40:50.672Z,13.80
2023-04-25T09:43:27.717Z,13.40
2023-04-25T09:46:00.324Z,13.00
2023-04-25T09:48:31.168Z,12.70
2023-04-25T09:51:10.391Z,12.50
2023-04-25T09:53:41.834Z,12.20
2023-04-25T09:56:37.935Z,11.90
2023-04-25T09:59:11.224Z,11.60
2023-04-25T10:01:42.823Z,11.30
2023-04-25T10:04:21.127Z,11.10
2023-04-25T10:07:29.281Z,11.10
2023-04-25T10:10:03.088Z,10.80
2023-04-25T10:12:32.061Z,10.70
2023-04-25T10:15:01.316Z,10.50
2023-04-25T10:17:30.094Z,10.40
2023-04-25T10:19:59.715Z,10.40
2023-04-25T10:22:34.798Z,10.50
2023-04-25T10:25:05.021Z,10.60
2023-04-25T10:27:34.287Z,10.90
2023-04-25T10:30:05.397Z,11.30
2023-04-25T10:32:34.664Z,11.70
2023-04-25T10:35:13.551Z,11.90
2023-04-25T10:37:59.503Z,12.10
2023-04-25T10:40:28.678Z,12.10
2023-04-25T10:42:57.986Z,12.10
2023-04-25T10:45:27.817Z,12.10
2023-04-25T10:47:57.187Z,12.10
2023-04-25T10:50:39.565Z,12.30
2023-04-25T10:53:18.028Z,12.70
2023-04-25T10:55:53.522Z,13.20
2023-04-25T10:58:24.567Z,13.70
2023-04-25T11:00:57.481Z,14.20
2023-04-25T11:03:26.899Z,14.60
2023-04-25T11:05:58.437Z,14.60
2023-04-25T11:08:43.844Z,14.40
2023-04-25T11:11:12.549Z,14.00
2023-04-25T11:13:41.192Z,13.80
2023-04-25T11:16:13.029Z,13.60
2023-04-25T11:18:43.979Z,13.60
2023-04-25T11:21:13.311Z,13.50
2023-04-25T11:23:43.361Z,13.10
2023-04-25T11:26:12.032Z,12.60
2023-04-25T11:28:40.627Z,12.00
2023-04-25T11:31:10.753Z,11.70
2023-04-25T11:33:39.309Z,11.50
2023-04-25T11:36:08.646Z,11.50
2023-04-25T11:38:37.238Z,12.00
2023-04-25T11:41:07.236Z,12.60
2023-04-25T11:43:35.876Z,12.90
2023-04-25T11:46:09.157Z,13.00
2023-04-25T11:48:41.036Z,12.70
2023-04-25T11:51:09.725Z,12.50
2023-04-25T11:53:38.320Z,12.20
2023-04-25T11:56:13.442Z,12.00
2023-04-25T11:59:02.223Z,11.90
2023-04-25T12:01:35.548Z,11.80
2023-04-25T12:04:15.084Z,12.00
2023-04-25T12:06:47.567Z,12.60
2023-04-25T12:09:18.908Z,13.50
2023-04-25T12:11:50.154Z,14.30
2023-04-25T12:14:28.086Z,15.00
2023-04-25T12:16:58.729Z,15.80
2023-04-25T12:19:28.363Z,16.30
2023-04-25T12:21:59.177Z,16.10
2023-04-25T12:24:29.272Z,15.50
2023-04-25T12:27:03.797Z,14.50
2023-04-25T12:29:48.669Z,13.70
2023-04-25T12:32:18.811Z,13.30
2023-04-25T12:34:47.640Z,13.10
2023-04-25T12:37:16.807Z,12.80
2023-04-25T12:39:45.712Z,13.10
2023-04-25T12:42:15.725Z,13.20
2023-04-25T12:44:44.230Z,13.30
2023-04-25T12:47:12.909Z,13.20
2023-04-25T12:49:41.722Z,13.20
2023-04-25T12:52:10.918Z,13.10
2023-04-25T12:54:39.766Z,13.00
2023-04-25T12:57:08.590Z,12.90
2023-04-25T12:59:38.599Z,12.50
2023-04-25T13:02:07.224Z,12.40
2023-04-25T13:04:35.987Z,12.30
2023-04-25T13:07:04.996Z,12.40
2023-04-25T13:09:33.668Z,12.60
2023-04-25T13:12:02.688Z,12.80
2023-04-25T13:14:31.574Z,13.20
2023-04-25T13:17:01.578Z,13.40
2023-04-25T13:19:30.236Z,13.80
2023-04-25T13:21:59.860Z,14.30
2023-04-25T13:24:28.849Z,14.40
2023-04-25T13:26:57.821Z,14.50
2023-04-25T13:29:26.361Z,14.10
2023-04-25T13:31:54.899Z,13.60
2023-04-25T13:34:25.030Z,13.00
2023-04-25T13:36:53.744Z,12.50
2023-04-25T13:39:22.376Z,12.10
2023-04-25T13:41:50.968Z,12.10
2023-04-25T13:44:19.501Z,12.80
2023-04-25T13:46:48.392Z,13.60
2023-04-25T13:49:17.035Z,14.80
2023-04-25T13:51:47.355Z,15.50
2023-04-25T13:54:15.950Z,16.10
2023-04-25T13:56:44.567Z,16.80
2023-04-25T13:59:13.363Z,16.70
2023-04-25T14:01:42.026Z,15.90
2023-04-25T14:04:10.903Z,15.00
2023-04-25T14:06:39.552Z,14.20
2023-04-25T14:09:11.475Z,13.80
2023-04-25T14:11:40.171Z,14.00
2023-04-25T14:14:08.742Z,14.20
2023-04-25T14:16:37.520Z,14.20
2023-04-25T14:19:06.327Z,14.00
2023-04-25T14:21:34.906Z,14.40
2023-04-25T14:24:03.546Z,14.60
2023-04-25T14:26:33.728Z,14.20
2023-04-25T14:29:02.405Z,13.70
2023-04-25T14:31:31.191Z,13.20
2023-04-25T14:34:00.119Z,12.70
2023-04-25T14:36:30.007Z,12.30
2023-04-25T14:38:58.647Z,12.00
2023-04-25T14:41:27.941Z,11.80
2023-04-25T14:43:58.692Z,11.50
2023-04-25T14:46:27.742Z,11.60
2023-04-25T14:48:57.331Z,11.90
2023-04-25T14:51:27.412Z,12.60
2023-04-25T14:53:56.094Z,13.20
2023-04-25T14:56:24.918Z,13.80
2023-04-25T14:58:53.465Z,13.90
2023-04-25T15:01:24.209Z,13.80
2023-04-25T15:03:53.589Z,13.40
2023-04-25T15:06:22.656Z,13.10
2023-04-25T15:08:51.325Z,12.70
2023-04-25T15:11:21.306Z,12.40
2023-04-25T15:13:51.170Z,12.20
2023-04-25T15:16:20.220Z,11.90
2023-04-25T15:18:50.362Z,11.70
2023-04-25T15:21:19.016Z,11.50
2023-04-25T15:23:47.674Z,11.50
2023-04-25T15:26:16.637Z,11.80
2023-04-25T15:28:45.346Z,12.30
2023-04-25T15:31:13.910Z,12.80
2023-04-25T15:33:42.494Z,13.10
2023-04-25T15:36:12.528Z,13.40
2023-04-25T15:38:41.422Z,13.40
2023-04-25T15:41:10.464Z,13.10
2023-04-25T15:43:39.026Z,12.90
2023-04-25T15:46:07.812Z,12.40
2023-04-25T15:48:36.539Z,12.30
2023-04-25T15:51:06.031Z,12.10
2023-04-25T15:53:35.975Z,11.90
2023-04-25T15:56:05.700Z,11.70
2023-04-25T15:58:34.268Z,11.50
2023-04-25T16:01:04.829Z,11.40
2023-04-25T16:03:36.381Z,11.60
2023-04-25T16:06:06.042Z,11.90
2023-04-25T16:08:36.273Z,12.00
2023-04-25T16:11:05.351Z,12.00
2023-04-25T16:13:35.400Z,11.90
2023-04-25T16:16:04.078Z,11.80
2023-04-25T16:18:32.696Z,11.60
2023-04-25T16:21:01.425Z,11.40
2023-04-25T16:23:31.337Z,11.20
2023-04-25T16:26:01.342Z,10.90
2023-04-25T16:28:29.994Z,10.70
2023-04-25T16:30:58.647Z,10.50
2023-04-25T16:33:27.512Z,10.10
2023-04-25T16:35:56.270Z,10.20
2023-04-25T16:38:26.046Z,10.20
2023-04-25T16:40:55.132Z,10.10
2023-04-25T16:43:25.301Z,10.10
2023-04-25T16:45:53.958Z,10.20
2023-04-25T16:48:24.410Z,10.30
2023-04-25T16:50:53.442Z,10.40
2023-04-25T16:53:23.276Z,10.50
2023-04-25T16:55:52.248Z,10.60
2023-04-25T16:58:21.844Z,10.60
2023-04-25T17:00:51.807Z,10.50
2023-04-25T17:03:20.533Z,10.30
2023-04-25T17:05:51.192Z,10.20
2023-04-25T17:08:19.756Z,10.20
2023-04-25T17:10:48.385Z,10.30
2023-04-25T17:13:17.122Z,10.30
2023-04-25T17:15:45.829Z,10.30
2023-04-25T17:18:15.961Z,10.20
2023-04-25T17:20:44.797Z,10.20
2023-04-25T17:23:13.819Z,10.00
2023-04-25T17:25:42.798Z,10.10
2023-04-25T17:28:11.473Z,10.10
2023-04-25T17:30:42.249Z,10.10
2023-04-25T17:33:11.044Z,10.20
2023-04-25T17:35:41.513Z,10.20
2023-04-25T17:38:10.158Z,10.30
2023-04-25T17:40:41.767Z,10.30
2023-04-25T17:43:10.436Z,10.20
2023-04-25T17:45:39.217Z,10.10
2023-04-25T17:48:08.493Z,10.00
2023-04-25T17:50:37.312Z,9.90
2023-04-25T17:53:07.336Z,9.90
2023-04-25T17:55:36.076Z,9.90
2023-04-25T17:58:05.410Z,9.80
2023-04-25T18:00:34.449Z,9.70
2023-04-25T18:03:03.565Z,9.60
2023-04-25T18:05:32.993Z,9.40
2023-04-25T18:08:01.692Z,9.30
2023-04-25T18:10:31.621Z,9.10
2023-04-25T18:13:00.218Z,8.90
2023-04-25T18:15:28.891Z,8.80
2023-04-25T18:17:58.206Z,8.70
2023-04-25T18:20:28.529Z,8.50
2023-04-25T18:22:57.423Z,8.40
2023-04-25T18:25:25.933Z,8.30
2023-04-25T18:27:55.799Z,8.30
2023-04-25T18:30:24.478Z,8.20
2023-04-25T18:32:53.350Z,8.20
2023-04-25T18:35:22.584Z,8.10
2023-04-25T18:37:51.217Z,8.00
2023-04-25T18:40:19.914Z,8.00
2023-04-25T18:42:48.870Z,7.90
2023-04-25T18:45:19.390Z,7.90
2023-04-25T18:47:47.966Z,7.80
2023-04-25T18:50:20.310Z,7.70
2023-04-25T18:52:48.902Z,7.70
2023-04-25T18:55:17.555Z,7.60
2023-04-25T18:57:46.258Z,7.50
2023-04-25T19:00:17.347Z,7.50
2023-04-25T19:02:47.670Z,7.40
2023-04-25T19:05:16.457Z,7.30
2023-04-25T19:07:45.221Z,7.30
2023-04-25T19:10:13.742Z,7.20
2023-04-25T19:12:42.280Z,7.10
2023-04-25T19:15:11.877Z,7.10
2023-04-25T19:17:42.117Z,7.00
2023-04-25T19:20:13.373Z,6.90
2023-04-25T19:22:42.029Z,6.80
2023-04-25T19:25:11.444Z,6.80
2023-04-25T19:27:40.309Z,6.70
2023-04-25T19:30:10.644Z,6.70
2023-04-25T19:32:39.773Z,6.60
2023-04-25T19:35:11.581Z,6.60
2023-04-25T19:37:46.928Z,6.50
2023-04-25T19:40:16.771Z,6.40
2023-04-25T19:42:45.785Z,6.40
2023-04-25T19:45:14.317Z,6.30
2023-04-25T19:47:43.803Z,6.20
2023-04-25T19:50:12.913Z,6.20
2023-04-25T19:52:42.857Z,6.10
2023-04-25T19:55:11.829Z,6.00
2023-04-25T19:57:40.354Z,5.90
2023-04-25T20:00:10.920Z,5.90
2023-04-25T20:02:43.849Z,5.80
2023-04-25T20:05:14.395Z,5.80
2023-04-25T20:07:44.609Z,5.70
2023-04-25T20:10:14.151Z,5.60
2023-04-25T20:12:42.898Z,5.70
2023-04-25T20:15:12.573Z,5.50
2023-04-25T20:17:41.978Z,5.50
2023-04-25T20:20:12.106Z,5.40
2023-04-25T20:22:41.062Z,5.30
2023-04-25T20:25:12.200Z,5.30
2023-04-25T20:27:40.877Z,5.20
2023-04-25T20:30:11.932Z,5.10
2023-04-25T20:32:41.232Z,5.10
2023-04-25T20:35:10.669Z,5.00
2023-04-25T20:37:39.357Z,5.00
2023-04-25T20:40:11.122Z,4.90
2023-04-25T20:42:39.672Z,4.90
2023-04-25T20:45:13.003Z,4.80
2023-04-25T20:47:42.785Z,4.80
2023-04-25T20:50:12.302Z,4.80
2023-04-25T20:52:41.705Z,4.70
2023-04-25T20:55:11.997Z,4.80
2023-04-25T20:57:40.880Z,4.60
2023-04-25T21:00:16.703Z,4.60
2023-04-25T21:02:46.001Z,4.60
2023-04-25T21:05:14.658Z,4.60
2023-04-25T21:07:43.290Z,4.50
2023-04-25T21:10:14.444Z,4.50
2023-04-25T21:12:44.114Z,4.40
2023-04-25T21:15:14.532Z,4.40
2023-04-25T21:17:43.255Z,4.40
2023-04-25T21:20:12.328Z,4.40
2023-04-25T21:22:47.791Z,4.30
2023-04-25T21:25:20.957Z,4.30
2023-04-25T21:27:50.538Z,4.20
2023-04-25T21:30:22.342Z,4.20
2023-04-25T21:32:52.786Z,4.10
2023-04-25T21:35:23.010Z,4.10
2023-04-25T21:37:52.354Z,4.10
2023-04-25T21:40:22.311Z,4.10
2023-04-25T21:42:51.855Z,4.10
2023-04-25T21:45:21.277Z,4.10
2023-04-25T21:47:50.721Z,4.00
2023-04-25T21:50:19.940Z,4.10
2023-04-25T21:52:49.204Z,4.00
2023-04-25T21:55:19.670Z,3.90
2023-04-25T21:57:49.585Z,3.90
2023-04-25T22:00:24.335Z,3.90
2023-04-25T22:02:53.710Z,3.90
2023-04-25T22:05:23.290Z,3.80
2023-04-25T22:07:53.113Z,3.80
2023-04-25T22:10:21.953Z,3.80
2023-04-25T22:12:52.001Z,3.80
2023-04-25T22:15:22.424Z,3.70
2023-04-25T22:17:52.176Z,3.70
2023-04-25T22:20:24.283Z,3.70
2023-04-25T22:22:53.126Z,3.70
2023-04-25T22:25:22.210Z,3.60
2023-04-25T22:27:52.424Z,3.60
2023-04-25T22:30:21.638Z,3.60
2023-04-25T22:32:50.220Z,3.50
2023-04-25T22:35:19.291Z,3.50
2023-04-25T22:37:47.888Z,3.50
2023-04-25T22:40:16.516Z,3.50
2023-04-25T22:42:45.209Z,3.50
2023-04-25T22:45:16.145Z,3.40
2023-04-25T22:47:44.839Z,3.40
2023-04-25T22:50:16.584Z,3.40
2023-04-25T22:52:45.497Z,3.30
2023-04-25T22:55:14.054Z,3.30
2023-04-25T22:57:43.004Z,3.30
2023-04-25T23:00:16.257Z,3.30
2023-04-25T23:02:47.364Z,3.20
2023-04-25T23:05:16.568Z,3.30
2023-04-25T23:07:45.831Z,3.20
2023-04-25T23:10:14.617Z,3.20
2023-04-25T23:12:43.948Z,3.20
2023-04-25T23:15:13.437Z,3.10
2023-04-25T23:17:42.345Z,3.10
2023-04-25T23:20:13.349Z,3.10
2023-04-25T23:22:42.155Z,3.00
2023-04-25T23:25:11.817Z,3.00
2023-04-25T23:27:40.354Z,3.10
2023-04-25T23:30:10.348Z,3.10
2023-04-25T23:32:39.368Z,3.20
2023-04-25T23:35:08.732Z,3.30
2023-04-25T23:37:39.416Z,3.30
2023-04-25T23:40:09.857Z,3.30
2023-04-25T23:42:39.023Z,3.30
2023-04-25T23:45:09.222Z,3.40
2023-04-25T23:47:38.045Z,3.30
2023-04-25T23:50:07.996Z,3.30
2023-04-25T23:52:38.315Z,3.30
2023-04-25T23:55:07.759Z,3.30
2023-04-25T23:57:36.332Z,3.30
